sensor_id;sensor_type;location;lat;lon;timestamp;P1;durP1;ratioP1;P2;durP2;ratioP2
79005;SDS011;69202;45.498;-73.582;2023-04-24T00:00:14;4.95;;;2.50;;
79005;SDS011;69202;45.498;-73.582;2023-04-24T00:02:44;5.45;;;2.30;;
79005;SDS011;69202;45.498;-73.582;2023-04-24T00:05:12;5.43;;;2.50;;
79005;SDS011;69202;45.498;-73.582;2023-04-24T00:07:42;4.82;;;2.70;;
79005;SDS011;69202;45.498;-73.582;2023-04-24T00:10:10;6.18;;;3.42;;
79005;SDS011;69202;45.498;-73.582;2023-04-24T00:12:37;9.85;;;5.13;;
79005;SDS011;69202;45.498;-73.582;2023-04-24T00:15:03;7.90;;;3.53;;
79005;SDS011;69202;45.498;-73.582;2023-04-24T00:17:29;6.82;;;3.90;;
79005;SDS011;69202;45.498;-73.582;2023-04-24T00:19:56;5.45;;;3.95;;
79005;SDS011;69202;45.498;-73.582;2023-04-24T00:22:25;4.95;;;2.53;;
79005;SDS011;69202;45.498;-73.582;2023-04-24T00:24:51;5.10;;;3.13;;
79005;SDS011;69202;45.498;-73.582;2023-04-24T00:27:18;5.70;;;2.20;;
79005;SDS011;69202;45.498;-73.582;2023-04-24T00:29:44;4.60;;;2.38;;
79005;SDS011;69202;45.498;-73.582;2023-04-24T00:32:11;4.35;;;2.60;;
79005;SDS011;69202;45.498;-73.582;2023-04-24T00:34:37;4.68;;;2.40;;
79005;SDS011;69202;45.498;-73.582;2023-04-24T00:37:03;4.20;;;2.47;;
79005;SDS011;69202;45.498;-73.582;2023-04-24T00:39:29;5.50;;;2.90;;
79005;SDS011;69202;45.498;-73.582;2023-04-24T00:41:55;5.38;;;2.83;;
79005;SDS011;69202;45.498;-73.582;2023-04-24T00:44:22;6.13;;;3.35;;
79005;SDS011;69202;45.498;-73.582;2023-04-24T00:46:48;6.03;;;3.03;;
79005;SDS011;69202;45.498;-73.582;2023-04-24T00:49:22;4.53;;;3.08;;
79005;SDS011;69202;45.498;-73.582;2023-04-24T00:51:49;5.68;;;3.40;;
79005;SDS011;69202;45.498;-73.582;2023-04-24T00:54:16;6.95;;;3.10;;
79005;SDS011;69202;45.498;-73.582;2023-04-24T00:56:43;5.68;;;2.97;;
79005;SDS011;69202;45.498;-73.582;2023-04-24T00:59:11;4.75;;;3.05;;
79005;SDS011;69202;45.498;-73.582;2023-04-24T01:01:38;6.00;;;2.95;;
79005;SDS011;69202;45.498;-73.582;2023-04-24T01:04:08;7.30;;;2.47;;
79005;SDS011;69202;45.498;-73.582;2023-04-24T01:06:35;3.38;;;2.20;;
79005;SDS011;69202;45.498;-73.582;2023-04-24T01:09:05;4.97;;;2.67;;
79005;SDS011;69202;45.498;-73.582;2023-04-24T01:11:33;3.80;;;2.20;;
79005;SDS011;69202;45.498;-73.582;2023-04-24T01:13:59;3.85;;;2.53;;
79005;SDS011;69202;45.498;-73.582;2023-04-24T01:16:26;2.75;;;1.58;;
79005;SDS011;69202;45.498;-73.582;2023-04-24T01:18:52;4.20;;;1.85;;
79005;SDS011;69202;45.498;-73.582;2023-04-24T01:21:18;3.42;;;1.98;;
79005;SDS011;69202;45.498;-73.582;2023-04-24T01:23:47;4.28;;;2.08;;
79005;SDS011;69202;45.498;-73.582;2023-04-24T01:26:13;2.70;;;1.58;;
79005;SDS011;69202;45.498;-73.582;2023-04-24T01:28:41;5.07;;;1.95;;
79005;SDS011;69202;45.498;-73.582;2023-04-24T01:31:07;2.45;;;1.55;;
79005;SDS011;69202;45.498;-73.582;2023-04-24T01:33:33;1.80;;;1.42;;
79005;SDS011;69202;45.498;-73.582;2023-04-24T01:36:00;5.95;;;2.17;;
79005;SDS011;69202;45.498;-73.582;2023-04-24T01:38:26;5.30;;;2.15;;
79005;SDS011;69202;45.498;-73.582;2023-04-24T01:40:52;5.10;;;1.85;;
79005;SDS011;69202;45.498;-73.582;2023-04-24T01:43:18;6.63;;;2.40;;
79005;SDS011;69202;45.498;-73.582;2023-04-24T01:45:45;5.82;;;2.13;;
79005;SDS011;69202;45.498;-73.582;2023-04-24T01:48:11;2.97;;;1.88;;
79005;SDS011;69202;45.498;-73.582;2023-04-24T01:50:38;3.78;;;2.20;;
79005;SDS011;69202;45.498;-73.582;2023-04-24T01:53:04;4.55;;;2.35;;
79005;SDS011;69202;45.498;-73.582;2023-04-24T01:55:31;4.63;;;2.15;;
79005;SDS011;69202;45.498;-73.582;2023-04-24T01:57:57;4.85;;;2.40;;
79005;SDS011;69202;45.498;-73.582;2023-04-24T02:00:24;4.32;;;2.20;;
79005;SDS011;69202;45.498;-73.582;2023-04-24T02:02:50;3.17;;;2.15;;
79005;SDS011;69202;45.498;-73.582;2023-04-24T02:05:16;4.63;;;2.00;;
79005;SDS011;69202;45.498;-73.582;2023-04-24T02:07:42;4.43;;;2.20;;
79005;SDS011;69202;45.498;-73.582;2023-04-24T02:10:08;3.35;;;2.63;;
79005;SDS011;69202;45.498;-73.582;2023-04-24T02:12:34;3.47;;;1.23;;
79005;SDS011;69202;45.498;-73.582;2023-04-24T02:15:00;6.40;;;1.88;;
79005;SDS011;69202;45.498;-73.582;2023-04-24T02:17:26;3.15;;;1.80;;
79005;SDS011;69202;45.498;-73.582;2023-04-24T02:19:52;3.83;;;2.13;;
79005;SDS011;69202;45.498;-73.582;2023-04-24T02:22:18;2.97;;;1.80;;
79005;SDS011;69202;45.498;-73.582;2023-04-24T02:24:44;4.30;;;1.98;;
79005;SDS011;69202;45.498;-73.582;2023-04-24T02:27:10;2.03;;;1.40;;
79005;SDS011;69202;45.498;-73.582;2023-04-24T02:29:36;3.97;;;1.92;;
79005;SDS011;69202;45.498;-73.582;2023-04-24T02:32:02;5.50;;;2.30;;
79005;SDS011;69202;45.498;-73.582;2023-04-24T02:34:28;5.53;;;2.22;;
79005;SDS011;69202;45.498;-73.582;2023-04-24T02:36:54;8.75;;;1.98;;
79005;SDS011;69202;45.498;-73.582;2023-04-24T02:39:20;4.47;;;1.75;;
79005;SDS011;69202;45.498;-73.582;2023-04-24T02:41:46;3.25;;;2.10;;
79005;SDS011;69202;45.498;-73.582;2023-04-24T02:44:12;3.15;;;1.60;;
79005;SDS011;69202;45.498;-73.582;2023-04-24T02:46:38;6.13;;;2.60;;
79005;SDS011;69202;45.498;-73.582;2023-04-24T02:49:06;5.05;;;1.98;;
79005;SDS011;69202;45.498;-73.582;2023-04-24T02:51:32;3.95;;;2.05;;
79005;SDS011;69202;45.498;-73.582;2023-04-24T02:53:58;3.80;;;1.85;;
79005;SDS011;69202;45.498;-73.582;2023-04-24T02:56:24;4.25;;;1.80;;
79005;SDS011;69202;45.498;-73.582;2023-04-24T02:58:50;4.68;;;1.70;;
79005;SDS011;69202;45.498;-73.582;2023-04-24T03:01:16;4.57;;;2.10;;
79005;SDS011;69202;45.498;-73.582;2023-04-24T03:03:43;4.60;;;2.20;;
79005;SDS011;69202;45.498;-73.582;2023-04-24T03:06:08;1.85;;;1.50;;
79005;SDS011;69202;45.498;-73.582;2023-04-24T03:08:35;4.43;;;2.42;;
79005;SDS011;69202;45.498;-73.582;2023-04-24T03:11:01;6.75;;;2.33;;
79005;SDS011;69202;45.498;-73.582;2023-04-24T03:13:26;3.75;;;1.95;;
79005;SDS011;69202;45.498;-73.582;2023-04-24T03:15:52;2.38;;;1.70;;
79005;SDS011;69202;45.498;-73.582;2023-04-24T03:18:19;3.30;;;2.10;;
79005;SDS011;69202;45.498;-73.582;2023-04-24T03:20:45;3.22;;;1.38;;
79005;SDS011;69202;45.498;-73.582;2023-04-24T03:23:12;4.82;;;1.95;;
79005;SDS011;69202;45.498;-73.582;2023-04-24T03:25:38;2.53;;;1.60;;
79005;SDS011;69202;45.498;-73.582;2023-04-24T03:28:04;3.20;;;1.90;;
79005;SDS011;69202;45.498;-73.582;2023-04-24T03:30:30;3.05;;;1.80;;
79005;SDS011;69202;45.498;-73.582;2023-04-24T03:32:56;3.22;;;1.80;;
79005;SDS011;69202;45.498;-73.582;2023-04-24T03:35:22;3.72;;;2.10;;
79005;SDS011;69202;45.498;-73.582;2023-04-24T03:37:48;5.22;;;1.90;;
79005;SDS011;69202;45.498;-73.582;2023-04-24T03:40:14;6.65;;;2.17;;
79005;SDS011;69202;45.498;-73.582;2023-04-24T03:42:40;4.07;;;2.15;;
79005;SDS011;69202;45.498;-73.582;2023-04-24T03:45:06;2.92;;;1.90;;
79005;SDS011;69202;45.498;-73.582;2023-04-24T03:47:32;3.50;;;1.85;;
79005;SDS011;69202;45.498;-73.582;2023-04-24T03:49:58;3.15;;;1.90;;
79005;SDS011;69202;45.498;-73.582;2023-04-24T03:52:24;5.13;;;1.83;;
79005;SDS011;69202;45.498;-73.582;2023-04-24T03:54:50;4.88;;;2.13;;
79005;SDS011;69202;45.498;-73.582;2023-04-24T03:57:16;3.95;;;1.98;;
79005;SDS011;69202;45.498;-73.582;2023-04-24T03:59:42;5.20;;;2.38;;
79005;SDS011;69202;45.498;-73.582;2023-04-24T04:02:08;4.65;;;2.28;;
79005;SDS011;69202;45.498;-73.582;2023-04-24T04:04:34;4.82;;;2.22;;
79005;SDS011;69202;45.498;-73.582;2023-04-24T04:07:00;3.42;;;2.10;;
79005;SDS011;69202;45.498;-73.582;2023-04-24T04:09:28;4.78;;;2.60;;
79005;SDS011;69202;45.498;-73.582;2023-04-24T04:11:54;4.50;;;2.58;;
79005;SDS011;69202;45.498;-73.582;2023-04-24T04:14:21;3.25;;;2.15;;
79005;SDS011;69202;45.498;-73.582;2023-04-24T04:16:47;4.45;;;1.90;;
79005;SDS011;69202;45.498;-73.582;2023-04-24T04:19:13;3.30;;;2.20;;
79005;SDS011;69202;45.498;-73.582;2023-04-24T04:21:39;5.05;;;2.25;;
79005;SDS011;69202;45.498;-73.582;2023-04-24T04:24:05;7.10;;;2.90;;
79005;SDS011;69202;45.498;-73.582;2023-04-24T04:26:32;4.43;;;2.75;;
79005;SDS011;69202;45.498;-73.582;2023-04-24T04:28:59;3.35;;;2.25;;
79005;SDS011;69202;45.498;-73.582;2023-04-24T04:31:28;3.83;;;2.70;;
79005;SDS011;69202;45.498;-73.582;2023-04-24T04:33:55;4.07;;;2.40;;
79005;SDS011;69202;45.498;-73.582;2023-04-24T04:36:21;4.90;;;2.33;;
79005;SDS011;69202;45.498;-73.582;2023-04-24T04:38:49;6.90;;;2.30;;
79005;SDS011;69202;45.498;-73.582;2023-04-24T04:41:15;3.03;;;2.10;;
79005;SDS011;69202;45.498;-73.582;2023-04-24T04:43:43;2.90;;;2.40;;
79005;SDS011;69202;45.498;-73.582;2023-04-24T04:46:09;5.45;;;2.40;;
79005;SDS011;69202;45.498;-73.582;2023-04-24T04:48:35;5.93;;;2.58;;
79005;SDS011;69202;45.498;-73.582;2023-04-24T04:51:02;6.00;;;3.17;;
79005;SDS011;69202;45.498;-73.582;2023-04-24T04:53:28;4.95;;;3.08;;
79005;SDS011;69202;45.498;-73.582;2023-04-24T04:55:55;5.22;;;3.10;;
79005;SDS011;69202;45.498;-73.582;2023-04-24T04:58:21;5.13;;;3.08;;
79005;SDS011;69202;45.498;-73.582;2023-04-24T05:00:47;4.47;;;3.00;;
79005;SDS011;69202;45.498;-73.582;2023-04-24T05:03:13;5.45;;;3.28;;
79005;SDS011;69202;45.498;-73.582;2023-04-24T05:05:40;6.43;;;3.47;;
79005;SDS011;69202;45.498;-73.582;2023-04-24T05:08:09;4.03;;;2.90;;
79005;SDS011;69202;45.498;-73.582;2023-04-24T05:10:35;4.45;;;3.10;;
79005;SDS011;69202;45.498;-73.582;2023-04-24T05:13:02;3.72;;;3.00;;
79005;SDS011;69202;45.498;-73.582;2023-04-24T05:15:29;3.63;;;3.28;;
79005;SDS011;69202;45.498;-73.582;2023-04-24T05:17:55;4.63;;;2.95;;
79005;SDS011;69202;45.498;-73.582;2023-04-24T05:20:21;5.20;;;3.20;;
79005;SDS011;69202;45.498;-73.582;2023-04-24T05:22:48;3.08;;;2.75;;
79005;SDS011;69202;45.498;-73.582;2023-04-24T05:25:13;5.47;;;2.75;;
79005;SDS011;69202;45.498;-73.582;2023-04-24T05:27:40;3.53;;;2.72;;
79005;SDS011;69202;45.498;-73.582;2023-04-24T05:30:06;2.95;;;2.63;;
79005;SDS011;69202;45.498;-73.582;2023-04-24T05:32:33;6.45;;;3.85;;
79005;SDS011;69202;45.498;-73.582;2023-04-24T05:34:58;4.00;;;3.60;;
79005;SDS011;69202;45.498;-73.582;2023-04-24T05:37:25;4.18;;;3.60;;
79005;SDS011;69202;45.498;-73.582;2023-04-24T05:39:51;6.60;;;5.65;;
79005;SDS011;69202;45.498;-73.582;2023-04-24T05:42:17;6.30;;;5.70;;
79005;SDS011;69202;45.498;-73.582;2023-04-24T05:44:42;6.50;;;5.88;;
79005;SDS011;69202;45.498;-73.582;2023-04-24T05:47:08;9.60;;;8.55;;
79005;SDS011;69202;45.498;-73.582;2023-04-24T05:49:34;9.70;;;8.18;;
79005;SDS011;69202;45.498;-73.582;2023-04-24T05:52:00;10.93;;;9.93;;
79005;SDS011;69202;45.498;-73.582;2023-04-24T05:54:26;11.18;;;10.00;;
79005;SDS011;69202;45.498;-73.582;2023-04-24T05:56:52;10.85;;;9.75;;
79005;SDS011;69202;45.498;-73.582;2023-04-24T05:59:20;13.73;;;9.25;;
79005;SDS011;69202;45.498;-73.582;2023-04-24T06:01:46;9.80;;;8.80;;
79005;SDS011;69202;45.498;-73.582;2023-04-24T06:04:12;9.90;;;8.75;;
79005;SDS011;69202;45.498;-73.582;2023-04-24T06:06:41;10.50;;;9.35;;
79005;SDS011;69202;45.498;-73.582;2023-04-24T06:09:07;12.10;;;9.55;;
79005;SDS011;69202;45.498;-73.582;2023-04-24T06:11:33;10.63;;;8.77;;
79005;SDS011;69202;45.498;-73.582;2023-04-24T06:14:01;12.13;;;9.85;;
79005;SDS011;69202;45.498;-73.582;2023-04-24T06:16:27;11.52;;;10.32;;
79005;SDS011;69202;45.498;-73.582;2023-04-24T06:18:53;12.48;;;10.45;;
79005;SDS011;69202;45.498;-73.582;2023-04-24T06:21:19;13.82;;;10.75;;
79005;SDS011;69202;45.498;-73.582;2023-04-24T06:23:45;13.50;;;11.98;;
79005;SDS011;69202;45.498;-73.582;2023-04-24T06:26:14;14.40;;;11.88;;
79005;SDS011;69202;45.498;-73.582;2023-04-24T06:28:40;14.18;;;11.27;;
79005;SDS011;69202;45.498;-73.582;2023-04-24T06:31:06;12.38;;;10.95;;
79005;SDS011;69202;45.498;-73.582;2023-04-24T06:33:32;14.98;;;11.90;;
79005;SDS011;69202;45.498;-73.582;2023-04-24T06:35:57;14.10;;;12.60;;
79005;SDS011;69202;45.498;-73.582;2023-04-24T06:38:23;13.23;;;11.93;;
79005;SDS011;69202;45.498;-73.582;2023-04-24T06:40:49;12.98;;;11.77;;
79005;SDS011;69202;45.498;-73.582;2023-04-24T06:43:15;13.38;;;11.98;;
79005;SDS011;69202;45.498;-73.582;2023-04-24T06:45:41;14.40;;;12.93;;
79005;SDS011;69202;45.498;-73.582;2023-04-24T06:48:08;12.25;;;10.77;;
79005;SDS011;69202;45.498;-73.582;2023-04-24T06:50:35;10.73;;;9.40;;
79005;SDS011;69202;45.498;-73.582;2023-04-24T06:53:01;10.95;;;9.07;;
79005;SDS011;69202;45.498;-73.582;2023-04-24T06:55:27;13.90;;;8.98;;
79005;SDS011;69202;45.498;-73.582;2023-04-24T06:57:53;11.90;;;8.63;;
79005;SDS011;69202;45.498;-73.582;2023-04-24T07:00:19;8.98;;;8.07;;
79005;SDS011;69202;45.498;-73.582;2023-04-24T07:02:45;10.45;;;8.68;;
79005;SDS011;69202;45.498;-73.582;2023-04-24T07:05:11;10.45;;;8.75;;
79005;SDS011;69202;45.498;-73.582;2023-04-24T07:07:37;11.23;;;8.60;;
79005;SDS011;69202;45.498;-73.582;2023-04-24T07:10:05;10.43;;;7.70;;
79005;SDS011;69202;45.498;-73.582;2023-04-24T07:12:31;9.60;;;8.55;;
79005;SDS011;69202;45.498;-73.582;2023-04-24T07:14:58;9.73;;;8.68;;
79005;SDS011;69202;45.498;-73.582;2023-04-24T07:17:24;8.82;;;7.93;;
79005;SDS011;69202;45.498;-73.582;2023-04-24T07:19:49;10.05;;;8.85;;
79005;SDS011;69202;45.498;-73.582;2023-04-24T07:22:16;10.13;;;8.82;;
79005;SDS011;69202;45.498;-73.582;2023-04-24T07:24:45;9.60;;;8.60;;
79005;SDS011;69202;45.498;-73.582;2023-04-24T07:27:11;10.63;;;9.45;;
79005;SDS011;69202;45.498;-73.582;2023-04-24T07:29:40;10.63;;;9.23;;
79005;SDS011;69202;45.498;-73.582;2023-04-24T07:32:07;11.43;;;9.07;;
79005;SDS011;69202;45.498;-73.582;2023-04-24T07:34:34;9.18;;;8.27;;
79005;SDS011;69202;45.498;-73.582;2023-04-24T07:37:00;10.48;;;8.75;;
79005;SDS011;69202;45.498;-73.582;2023-04-24T07:39:27;11.88;;;9.25;;
79005;SDS011;69202;45.498;-73.582;2023-04-24T07:41:56;9.35;;;8.27;;
79005;SDS011;69202;45.498;-73.582;2023-04-24T07:44:24;11.07;;;9.15;;
79005;SDS011;69202;45.498;-73.582;2023-04-24T07:46:53;10.88;;;9.60;;
79005;SDS011;69202;45.498;-73.582;2023-04-24T07:49:19;11.68;;;9.65;;
79005;SDS011;69202;45.498;-73.582;2023-04-24T07:51:45;11.30;;;10.15;;
79005;SDS011;69202;45.498;-73.582;2023-04-24T07:54:11;12.65;;;9.80;;
79005;SDS011;69202;45.498;-73.582;2023-04-24T07:56:37;10.27;;;9.23;;
79005;SDS011;69202;45.498;-73.582;2023-04-24T07:59:04;13.07;;;9.35;;
79005;SDS011;69202;45.498;-73.582;2023-04-24T08:01:30;10.63;;;9.10;;
79005;SDS011;69202;45.498;-73.582;2023-04-24T08:03:56;10.23;;;8.88;;
79005;SDS011;69202;45.498;-73.582;2023-04-24T08:06:22;10.23;;;8.55;;
79005;SDS011;69202;45.498;-73.582;2023-04-24T08:08:49;8.93;;;8.02;;
79005;SDS011;69202;45.498;-73.582;2023-04-24T08:11:16;9.93;;;8.07;;
79005;SDS011;69202;45.498;-73.582;2023-04-24T08:13:42;9.60;;;8.45;;
79005;SDS011;69202;45.498;-73.582;2023-04-24T08:16:08;10.20;;;8.68;;
79005;SDS011;69202;45.498;-73.582;2023-04-24T08:18:34;11.07;;;9.65;;
79005;SDS011;69202;45.498;-73.582;2023-04-24T08:21:01;10.63;;;9.05;;
79005;SDS011;69202;45.498;-73.582;2023-04-24T08:23:27;10.52;;;8.85;;
79005;SDS011;69202;45.498;-73.582;2023-04-24T08:25:54;11.02;;;9.82;;
79005;SDS011;69202;45.498;-73.582;2023-04-24T08:28:20;9.48;;;8.52;;
79005;SDS011;69202;45.498;-73.582;2023-04-24T08:30:47;10.38;;;9.27;;
79005;SDS011;69202;45.498;-73.582;2023-04-24T08:33:20;10.40;;;8.57;;
79005;SDS011;69202;45.498;-73.582;2023-04-24T08:35:47;9.60;;;8.65;;
79005;SDS011;69202;45.498;-73.582;2023-04-24T08:38:13;10.57;;;8.98;;
79005;SDS011;69202;45.498;-73.582;2023-04-24T08:40:39;10.25;;;8.85;;
79005;SDS011;69202;45.498;-73.582;2023-04-24T08:43:05;10.10;;;7.78;;
79005;SDS011;69202;45.498;-73.582;2023-04-24T08:45:32;9.23;;;8.23;;
79005;SDS011;69202;45.498;-73.582;2023-04-24T08:47:58;10.18;;;8.73;;
79005;SDS011;69202;45.498;-73.582;2023-04-24T08:50:26;9.90;;;8.07;;
79005;SDS011;69202;45.498;-73.582;2023-04-24T08:52:52;9.00;;;8.10;;
79005;SDS011;69202;45.498;-73.582;2023-04-24T08:55:19;12.45;;;8.45;;
79005;SDS011;69202;45.498;-73.582;2023-04-24T08:57:52;10.90;;;8.98;;
79005;SDS011;69202;45.498;-73.582;2023-04-24T09:00:22;8.75;;;7.85;;
79005;SDS011;69202;45.498;-73.582;2023-04-24T09:02:52;10.07;;;8.65;;
79005;SDS011;69202;45.498;-73.582;2023-04-24T09:05:19;9.95;;;8.07;;
79005;SDS011;69202;45.498;-73.582;2023-04-24T09:07:54;9.18;;;8.27;;
79005;SDS011;69202;45.498;-73.582;2023-04-24T09:10:23;10.40;;;9.25;;
79005;SDS011;69202;45.498;-73.582;2023-04-24T09:12:50;11.45;;;10.00;;
79005;SDS011;69202;45.498;-73.582;2023-04-24T09:15:18;10.45;;;9.40;;
79005;SDS011;69202;45.498;-73.582;2023-04-24T09:17:45;11.43;;;9.35;;
79005;SDS011;69202;45.498;-73.582;2023-04-24T09:20:12;11.73;;;9.13;;
79005;SDS011;69202;45.498;-73.582;2023-04-24T09:22:38;11.80;;;9.73;;
79005;SDS011;69202;45.498;-73.582;2023-04-24T09:25:07;14.00;;;10.75;;
79005;SDS011;69202;45.498;-73.582;2023-04-24T09:27:34;11.30;;;10.10;;
79005;SDS011;69202;45.498;-73.582;2023-04-24T09:30:01;13.38;;;10.10;;
79005;SDS011;69202;45.498;-73.582;2023-04-24T09:32:28;11.23;;;9.82;;
79005;SDS011;69202;45.498;-73.582;2023-04-24T09:37:43;11.38;;;9.85;;
79005;SDS011;69202;45.498;-73.582;2023-04-24T09:40:21;11.32;;;8.85;;
79005;SDS011;69202;45.498;-73.582;2023-04-24T09:42:55;10.70;;;9.23;;
79005;SDS011;69202;45.498;-73.582;2023-04-24T09:45:22;13.18;;;10.27;;
79005;SDS011;69202;45.498;-73.582;2023-04-24T09:48:09;10.55;;;9.45;;
79005;SDS011;69202;45.498;-73.582;2023-04-24T09:50:35;12.02;;;10.75;;
79005;SDS011;69202;45.498;-73.582;2023-04-24T09:53:02;12.15;;;10.48;;
79005;SDS011;69202;45.498;-73.582;2023-04-24T09:55:29;11.60;;;9.82;;
79005;SDS011;69202;45.498;-73.582;2023-04-24T09:57:56;10.38;;;9.35;;
79005;SDS011;69202;45.498;-73.582;2023-04-24T10:00:26;13.00;;;9.85;;
79005;SDS011;69202;45.498;-73.582;2023-04-24T10:02:59;12.60;;;10.95;;
79005;SDS011;69202;45.498;-73.582;2023-04-24T10:05:27;13.45;;;11.27;;
79005;SDS011;69202;45.498;-73.582;2023-04-24T10:08:06;15.73;;;11.05;;
79005;SDS011;69202;45.498;-73.582;2023-04-24T10:10:35;12.55;;;11.25;;
79005;SDS011;69202;45.498;-73.582;2023-04-24T10:13:04;12.52;;;9.98;;
79005;SDS011;69202;45.498;-73.582;2023-04-24T10:15:30;13.60;;;10.73;;
79005;SDS011;69202;45.498;-73.582;2023-04-24T10:18:00;14.82;;;10.73;;
79005;SDS011;69202;45.498;-73.582;2023-04-24T10:20:28;15.63;;;10.60;;
79005;SDS011;69202;45.498;-73.582;2023-04-24T10:23:03;12.65;;;11.02;;
79005;SDS011;69202;45.498;-73.582;2023-04-24T10:25:31;18.23;;;11.93;;
79005;SDS011;69202;45.498;-73.582;2023-04-24T10:27:58;14.02;;;11.30;;
79005;SDS011;69202;45.498;-73.582;2023-04-24T10:30:26;14.95;;;10.82;;
79005;SDS011;69202;45.498;-73.582;2023-04-24T10:32:54;13.00;;;10.93;;
79005;SDS011;69202;45.498;-73.582;2023-04-24T10:35:21;17.23;;;12.45;;
79005;SDS011;69202;45.498;-73.582;2023-04-24T10:37:50;14.65;;;11.75;;
79005;SDS011;69202;45.498;-73.582;2023-04-24T10:40:34;12.68;;;11.38;;
79005;SDS011;69202;45.498;-73.582;2023-04-24T10:43:05;15.63;;;11.15;;
79005;SDS011;69202;45.498;-73.582;2023-04-24T10:45:33;15.57;;;11.95;;
79005;SDS011;69202;45.498;-73.582;2023-04-24T10:50:29;14.45;;;11.30;;
79005;SDS011;69202;45.498;-73.582;2023-04-24T10:53:09;16.13;;;11.18;;
79005;SDS011;69202;45.498;-73.582;2023-04-24T10:55:49;14.35;;;10.90;;
79005;SDS011;69202;45.498;-73.582;2023-04-24T10:58:18;16.65;;;11.57;;
79005;SDS011;69202;45.498;-73.582;2023-04-24T11:00:57;16.15;;;10.98;;
79005;SDS011;69202;45.498;-73.582;2023-04-24T11:03:28;17.45;;;12.23;;
79005;SDS011;69202;45.498;-73.582;2023-04-24T11:05:56;16.08;;;12.38;;
79005;SDS011;69202;45.498;-73.582;2023-04-24T11:08:36;16.65;;;11.55;;
79005;SDS011;69202;45.498;-73.582;2023-04-24T11:18:52;13.35;;;10.07;;
79005;SDS011;69202;45.498;-73.582;2023-04-24T11:21:30;13.57;;;11.25;;
79005;SDS011;69202;45.498;-73.582;2023-04-24T11:23:57;16.40;;;10.52;;
79005;SDS011;69202;45.498;-73.582;2023-04-24T11:26:23;12.73;;;9.80;;
79005;SDS011;69202;45.498;-73.582;2023-04-24T11:28:55;14.75;;;10.40;;
79005;SDS011;69202;45.498;-73.582;2023-04-24T11:31:36;10.27;;;8.82;;
79005;SDS011;69202;45.498;-73.582;2023-04-24T11:34:10;9.82;;;8.82;;
79005;SDS011;69202;45.498;-73.582;2023-04-24T11:36:39;9.43;;;8.40;;
79005;SDS011;69202;45.498;-73.582;2023-04-24T11:39:08;10.88;;;8.45;;
79005;SDS011;69202;45.498;-73.582;2023-04-24T11:41:34;9.88;;;7.78;;
79005;SDS011;69202;45.498;-73.582;2023-04-24T11:44:00;9.05;;;8.07;;
79005;SDS011;69202;45.498;-73.582;2023-04-24T11:46:28;10.82;;;9.02;;
79005;SDS011;69202;45.498;-73.582;2023-04-24T11:48:56;8.85;;;7.68;;
79005;SDS011;69202;45.498;-73.582;2023-04-24T11:51:23;9.77;;;8.30;;
79005;SDS011;69202;45.498;-73.582;2023-04-24T11:53:52;9.27;;;8.38;;
79005;SDS011;69202;45.498;-73.582;2023-04-24T11:56:19;9.60;;;8.20;;
79005;SDS011;69202;45.498;-73.582;2023-04-24T11:58:47;9.52;;;8.50;;
79005;SDS011;69202;45.498;-73.582;2023-04-24T12:01:13;8.73;;;7.82;;
79005;SDS011;69202;45.498;-73.582;2023-04-24T12:03:39;9.90;;;8.30;;
79005;SDS011;69202;45.498;-73.582;2023-04-24T12:06:11;8.93;;;7.57;;
79005;SDS011;69202;45.498;-73.582;2023-04-24T12:08:37;13.93;;;7.63;;
79005;SDS011;69202;45.498;-73.582;2023-04-24T12:11:04;10.20;;;7.75;;
79005;SDS011;69202;45.498;-73.582;2023-04-24T12:13:34;9.90;;;8.10;;
79005;SDS011;69202;45.498;-73.582;2023-04-24T12:16:04;8.10;;;7.28;;
79005;SDS011;69202;45.498;-73.582;2023-04-24T12:18:30;10.38;;;7.60;;
79005;SDS011;69202;45.498;-73.582;2023-04-24T12:21:14;14.38;;;7.90;;
79005;SDS011;69202;45.498;-73.582;2023-04-24T12:23:42;10.85;;;7.90;;
79005;SDS011;69202;45.498;-73.582;2023-04-24T12:26:09;8.80;;;7.90;;
79005;SDS011;69202;45.498;-73.582;2023-04-24T12:28:36;10.85;;;8.18;;
79005;SDS011;69202;45.498;-73.582;2023-04-24T12:31:03;11.35;;;7.55;;
79005;SDS011;69202;45.498;-73.582;2023-04-24T12:33:34;9.77;;;7.78;;
79005;SDS011;69202;45.498;-73.582;2023-04-24T12:36:01;9.07;;;7.15;;
79005;SDS011;69202;45.498;-73.582;2023-04-24T12:38:28;8.85;;;7.43;;
79005;SDS011;69202;45.498;-73.582;2023-04-24T12:41:08;11.77;;;8.02;;
79005;SDS011;69202;45.498;-73.582;2023-04-24T12:43:35;8.80;;;7.47;;
79005;SDS011;69202;45.498;-73.582;2023-04-24T12:46:01;10.82;;;7.30;;
79005;SDS011;69202;45.498;-73.582;2023-04-24T12:48:28;9.00;;;6.72;;
79005;SDS011;69202;45.498;-73.582;2023-04-24T12:50:56;7.50;;;6.70;;
79005;SDS011;69202;45.498;-73.582;2023-04-24T12:53:26;9.68;;;7.25;;
79005;SDS011;69202;45.498;-73.582;2023-04-24T12:55:54;9.45;;;7.15;;
79005;SDS011;69202;45.498;-73.582;2023-04-24T12:58:20;9.15;;;7.55;;
79005;SDS011;69202;45.498;-73.582;2023-04-24T13:00:47;9.10;;;7.40;;
79005;SDS011;69202;45.498;-73.582;2023-04-24T13:03:14;10.75;;;7.13;;
79005;SDS011;69202;45.498;-73.582;2023-04-24T13:05:43;9.48;;;7.00;;
79005;SDS011;69202;45.498;-73.582;2023-04-24T13:08:09;11.02;;;7.32;;
79005;SDS011;69202;45.498;-73.582;2023-04-24T13:10:35;12.88;;;6.90;;
79005;SDS011;69202;45.498;-73.582;2023-04-24T13:13:01;12.10;;;6.53;;
79005;SDS011;69202;45.498;-73.582;2023-04-24T13:15:28;11.68;;;6.72;;
79005;SDS011;69202;45.498;-73.582;2023-04-24T13:17:54;7.63;;;6.75;;
79005;SDS011;69202;45.498;-73.582;2023-04-24T13:20:20;7.75;;;6.47;;
79005;SDS011;69202;45.498;-73.582;2023-04-24T13:22:46;7.60;;;6.68;;
79005;SDS011;69202;45.498;-73.582;2023-04-24T13:25:12;11.68;;;6.82;;
79005;SDS011;69202;45.498;-73.582;2023-04-24T13:27:41;7.28;;;5.90;;
79005;SDS011;69202;45.498;-73.582;2023-04-24T13:30:07;8.07;;;6.30;;
79005;SDS011;69202;45.498;-73.582;2023-04-24T13:32:35;8.95;;;6.57;;
79005;SDS011;69202;45.498;-73.582;2023-04-24T13:35:01;7.25;;;6.53;;
79005;SDS011;69202;45.498;-73.582;2023-04-24T13:37:27;7.47;;;6.13;;
79005;SDS011;69202;45.498;-73.582;2023-04-24T13:39:53;8.65;;;6.03;;
79005;SDS011;69202;45.498;-73.582;2023-04-24T13:42:19;10.30;;;6.10;;
79005;SDS011;69202;45.498;-73.582;2023-04-24T13:44:45;10.05;;;6.03;;
79005;SDS011;69202;45.498;-73.582;2023-04-24T13:47:11;9.07;;;6.43;;
79005;SDS011;69202;45.498;-73.582;2023-04-24T13:49:37;7.05;;;6.13;;
79005;SDS011;69202;45.498;-73.582;2023-04-24T13:52:03;8.60;;;5.90;;
79005;SDS011;69202;45.498;-73.582;2023-04-24T13:54:29;10.13;;;6.18;;
79005;SDS011;69202;45.498;-73.582;2023-04-24T13:56:57;8.82;;;5.95;;
79005;SDS011;69202;45.498;-73.582;2023-04-24T13:59:23;8.73;;;6.03;;
79005;SDS011;69202;45.498;-73.582;2023-04-24T14:01:49;6.82;;;5.68;;
79005;SDS011;69202;45.498;-73.582;2023-04-24T14:04:15;7.22;;;5.55;;
79005;SDS011;69202;45.498;-73.582;2023-04-24T14:06:41;11.93;;;6.20;;
79005;SDS011;69202;45.498;-73.582;2023-04-24T14:09:07;9.13;;;5.55;;
79005;SDS011;69202;45.498;-73.582;2023-04-24T14:11:33;8.02;;;5.35;;
79005;SDS011;69202;45.498;-73.582;2023-04-24T14:13:59;7.85;;;6.15;;
79005;SDS011;69202;45.498;-73.582;2023-04-24T14:16:26;9.18;;;5.78;;
79005;SDS011;69202;45.498;-73.582;2023-04-24T14:18:51;7.15;;;5.97;;
79005;SDS011;69202;45.498;-73.582;2023-04-24T14:21:17;9.80;;;5.93;;
79005;SDS011;69202;45.498;-73.582;2023-04-24T14:23:43;7.88;;;5.85;;
79005;SDS011;69202;45.498;-73.582;2023-04-24T14:26:10;7.57;;;6.13;;